createdAt,value
2022-11-12T00:03:06.679Z,17.95
2022-11-12T00:08:28.815Z,18.92
2022-11-12T00:13:50.692Z,17.77
2022-11-12T00:19:13.806Z,17.33
2022-11-12T00:24:35.535Z,17.20
2022-11-12T00:29:57.270Z,16.65
2022-11-12T00:35:20.279Z,16.85
2022-11-12T00:40:43.009Z,15.85
2022-11-12T00:46:05.358Z,16.73
2022-11-12T00:51:28.542Z,16.23
2022-11-12T00:56:50.730Z,16.02
2022-11-12T01:02:12.854Z,16.50
2022-11-12T01:07:36.148Z,15.82
2022-11-12T01:12:57.915Z,16.25
2022-11-12T01:18:19.670Z,15.20
2022-11-12T01:23:43.426Z,14.75
2022-11-12T01:29:05.855Z,15.18
2022-11-12T01:34:27.757Z,15.15
2022-11-12T01:39:51.130Z,16.90
2022-11-12T01:45:15.876Z,16.92
2022-11-12T01:50:44.846Z,18.12
2022-11-12T01:56:09.102Z,16.73
2022-11-12T02:01:31.618Z,16.92
2022-11-12T02:06:54.543Z,15.80
2022-11-12T02:12:31.690Z,16.60
2022-11-12T02:17:54.196Z,16.43
2022-11-12T02:23:17.443Z,17.67
2022-11-12T02:28:39.177Z,17.23
2022-11-12T02:34:00.991Z,17.67
2022-11-12T02:39:24.223Z,18.92
2022-11-12T02:44:45.996Z,18.65
2022-11-12T02:50:08.966Z,18.92
2022-11-12T02:55:32.104Z,21.50
2022-11-12T03:00:54.112Z,20.05
2022-11-12T03:06:16.281Z,19.37
2022-11-12T03:11:40.024Z,18.73
2022-11-12T03:17:01.763Z,18.83
2022-11-12T03:22:23.403Z,18.67
2022-11-12T03:27:46.527Z,19.27
2022-11-12T03:33:10.036Z,18.27
2022-11-12T03:38:31.967Z,16.48
2022-11-12T03:43:57.557Z,16.08
2022-11-12T03:49:19.289Z,15.95
2022-11-12T03:54:41.074Z,15.57
2022-11-12T04:00:05.052Z,17.40
2022-11-12T04:05:45.346Z,17.67
2022-11-12T04:11:10.302Z,17.77
2022-11-12T04:16:50.988Z,17.95
2022-11-12T04:22:13.170Z,17.30
2022-11-12T04:27:36.097Z,17.75
2022-11-12T04:32:59.486Z,17.15
2022-11-12T04:38:21.197Z,17.70
2022-11-12T04:44:00.471Z,18.17
2022-11-12T04:49:23.749Z,20.42
2022-11-12T04:54:45.542Z,20.10
2022-11-12T05:00:08.349Z,17.87
2022-11-12T05:05:33.982Z,19.10
2022-11-12T05:10:56.108Z,19.50
2022-11-12T05:16:17.871Z,19.85
2022-11-12T05:21:59.007Z,20.50
2022-11-12T05:27:22.347Z,20.27
2022-11-12T05:32:44.257Z,20.37
2022-11-12T05:38:07.429Z,20.92
2022-11-12T05:43:29.165Z,21.20
2022-11-12T05:48:50.853Z,19.62
2022-11-12T05:54:14.324Z,19.23
2022-11-12T05:59:36.377Z,19.00
2022-11-12T06:04:58.115Z,17.73
2022-11-12T06:10:21.259Z,17.27
2022-11-12T06:15:43.245Z,14.60
2022-11-12T06:21:26.824Z,15.65
2022-11-12T06:26:49.822Z,14.30
2022-11-12T06:32:11.521Z,14.55
2022-11-12T06:37:33.338Z,14.40
2022-11-12T06:42:59.341Z,14.50
2022-11-12T06:48:21.448Z,13.40
2022-11-12T06:53:42.991Z,13.65
2022-11-12T06:59:06.097Z,14.00
2022-11-12T07:04:27.799Z,13.48
2022-11-12T07:09:49.629Z,15.18
2022-11-12T07:15:13.141Z,14.73
2022-11-12T07:20:35.217Z,12.63
2022-11-12T07:25:58.633Z,13.85
2022-11-12T07:31:22.137Z,12.02
2022-11-12T07:36:44.204Z,12.98
2022-11-12T07:42:06.063Z,13.60
2022-11-12T07:47:29.334Z,14.25
2022-11-12T07:52:51.264Z,13.88
2022-11-12T07:58:13.136Z,13.75
2022-11-12T08:03:36.366Z,12.13
2022-11-12T08:08:59.993Z,13.48
2022-11-12T08:14:22.901Z,16.55
2022-11-12T08:19:46.285Z,13.62
2022-11-12T08:25:08.935Z,13.98
2022-11-12T08:30:31.335Z,14.25
2022-11-12T08:35:54.977Z,11.80
2022-11-12T08:41:17.679Z,11.80
2022-11-12T08:46:39.456Z,16.62
2022-11-12T08:52:02.819Z,13.82
2022-11-12T08:57:24.829Z,13.73
2022-11-12T09:02:46.680Z,11.43
2022-11-12T09:08:13.672Z,12.00
2022-11-12T09:13:35.929Z,11.93
2022-11-12T09:18:57.843Z,11.40
2022-11-12T09:24:20.963Z,11.55
2022-11-12T09:29:42.627Z,11.07
2022-11-12T09:35:05.068Z,10.15
2022-11-12T09:40:41.575Z,9.73
2022-11-12T09:46:27.350Z,9.27
2022-11-12T09:51:52.928Z,8.57
2022-11-12T09:57:16.355Z,9.55
2022-11-12T10:02:43.006Z,9.02
2022-11-12T10:08:21.441Z,8.68
2022-11-12T10:13:54.714Z,8.40
2022-11-12T10:19:43.026Z,8.32
2022-11-12T10:25:15.644Z,8.63
2022-11-12T10:30:38.916Z,11.73
2022-11-12T10:36:18.111Z,8.88
2022-11-12T10:41:39.975Z,9.43
2022-11-12T10:47:32.649Z,8.95
2022-11-12T10:52:57.783Z,9.95
2022-11-12T10:58:20.899Z,8.40
2022-11-12T11:03:52.314Z,8.60
2022-11-12T11:09:20.615Z,8.52
2022-11-12T11:14:44.554Z,8.60
2022-11-12T11:20:20.665Z,7.93
2022-11-12T11:25:44.267Z,7.20
2022-11-12T11:31:20.446Z,6.37
2022-11-12T11:36:54.166Z,6.35
2022-11-12T11:42:36.845Z,6.90
2022-11-12T11:48:07.540Z,7.15
2022-11-12T11:53:41.355Z,6.72
2022-11-12T11:59:17.768Z,8.38
2022-11-12T12:04:48.623Z,8.73
2022-11-12T12:10:34.748Z,7.30
2022-11-12T12:16:33.810Z,7.55
2022-11-12T12:21:59.667Z,6.90
2022-11-12T12:27:28.876Z,7.20
2022-11-12T12:32:56.811Z,8.38
2022-11-12T12:38:24.707Z,6.60
2022-11-12T12:43:53.502Z,6.90
2022-11-12T12:49:18.749Z,5.95
2022-11-12T12:54:56.873Z,5.93
2022-11-12T13:00:32.923Z,6.18
2022-11-12T13:06:07.927Z,5.72
2022-11-12T13:12:10.866Z,5.85
2022-11-12T13:17:49.122Z,6.15
2022-11-12T13:23:33.621Z,5.60
2022-11-12T13:29:37.821Z,5.87
2022-11-12T13:35:34.712Z,4.93
2022-11-12T13:41:05.839Z,5.75
2022-11-12T13:46:30.621Z,6.05
2022-11-12T13:51:56.677Z,9.48
2022-11-12T13:57:30.751Z,7.97
2022-11-12T14:02:56.374Z,7.05
2022-11-12T14:08:35.968Z,6.60
2022-11-12T14:14:05.543Z,6.82
2022-11-12T14:19:55.359Z,6.70
2022-11-12T14:25:22.180Z,7.10
2022-11-12T14:30:45.691Z,6.90
2022-11-12T14:36:14.560Z,7.25
2022-11-12T14:41:42.687Z,7.50
2022-11-12T14:47:05.260Z,7.93
2022-11-12T14:52:32.507Z,8.02
2022-11-12T14:57:58.762Z,7.70
2022-11-12T15:03:24.082Z,7.82
2022-11-12T15:08:57.540Z,7.43
2022-11-12T15:14:25.208Z,7.72
2022-11-12T15:19:47.270Z,8.27
2022-11-12T15:25:22.924Z,8.30
2022-11-12T15:31:01.678Z,8.52
2022-11-12T15:36:25.520Z,7.57
2022-11-12T15:41:47.702Z,9.00
2022-11-12T15:47:20.700Z,8.30
2022-11-12T15:52:42.902Z,8.95
2022-11-12T15:58:06.243Z,9.65
2022-11-12T16:03:31.362Z,9.57
2022-11-12T16:08:52.971Z,10.80
2022-11-12T16:14:15.504Z,12.90
2022-11-12T16:19:38.984Z,10.68
2022-11-12T16:25:00.730Z,12.60
2022-11-12T16:30:25.272Z,13.95
2022-11-12T16:35:48.830Z,13.05
2022-11-12T16:41:12.069Z,13.77
2022-11-12T16:46:40.210Z,15.32
2022-11-12T16:57:25.094Z,15.77
2022-11-12T17:02:52.097Z,14.77
2022-11-12T17:13:39.432Z,14.63
2022-11-12T17:19:02.708Z,14.80
2022-11-12T17:24:28.761Z,13.70
2022-11-12T17:29:50.685Z,14.55
2022-11-12T17:35:12.363Z,14.65
2022-11-12T17:40:35.415Z,14.63
2022-11-12T17:45:57.655Z,15.25
2022-11-12T17:51:21.522Z,14.77
2022-11-12T17:56:44.583Z,15.18
2022-11-12T18:02:06.460Z,14.38
2022-11-12T18:07:28.257Z,15.48
2022-11-12T18:12:52.620Z,16.30
2022-11-12T18:18:14.746Z,15.77
2022-11-12T18:23:37.995Z,18.37
2022-11-12T18:29:01.506Z,22.25
2022-11-12T18:34:23.366Z,55.80
2022-11-12T18:39:45.314Z,91.12
2022-11-12T18:45:10.002Z,91.30
2022-11-12T18:50:32.214Z,88.57
2022-11-12T18:55:54.186Z,84.35
2022-11-12T19:01:20.982Z,57.90
2022-11-12T19:06:43.188Z,49.20
2022-11-12T19:12:05.450Z,40.12
2022-11-12T19:17:31.135Z,42.50
2022-11-12T19:22:54.126Z,51.20
2022-11-12T19:28:16.198Z,44.15
2022-11-12T19:33:39.570Z,30.88
2022-11-12T19:39:02.613Z,34.65
2022-11-12T19:44:24.626Z,33.45
2022-11-12T19:49:47.785Z,28.55
2022-11-12T19:55:09.550Z,26.20
2022-11-12T20:00:31.367Z,22.67
2022-11-12T20:05:54.341Z,22.58
2022-11-12T20:11:18.339Z,21.33
2022-11-12T20:16:40.543Z,21.27
2022-11-12T20:22:03.608Z,21.12
2022-11-12T20:27:25.346Z,32.15
2022-11-12T20:32:47.409Z,49.60
2022-11-12T20:38:10.384Z,46.78
2022-11-12T20:43:32.692Z,47.65
2022-11-12T20:48:55.146Z,39.40
2022-11-12T20:54:18.444Z,38.80
2022-11-12T20:59:41.285Z,38.10
2022-11-12T21:05:03.506Z,32.20
2022-11-12T21:10:27.039Z,29.15
2022-11-12T21:15:49.144Z,34.13
2022-11-12T21:21:12.781Z,31.73
2022-11-12T21:26:35.962Z,34.67
2022-11-12T21:31:57.987Z,41.92
2022-11-12T21:37:20.080Z,38.17
2022-11-12T21:42:44.275Z,27.90
2022-11-12T21:48:06.657Z,23.23
2022-11-12T21:53:28.869Z,23.12
2022-11-12T21:58:53.186Z,20.85
2022-11-12T22:04:18.278Z,20.23
2022-11-12T22:09:40.502Z,19.42
2022-11-12T22:15:03.629Z,21.00
2022-11-12T22:20:25.758Z,23.70
2022-11-12T22:25:48.350Z,23.42
2022-11-12T22:31:13.975Z,21.50
2022-11-12T22:36:36.075Z,22.00
2022-11-12T22:41:58.140Z,21.15
2022-11-12T22:47:21.338Z,21.80
2022-11-12T22:52:48.826Z,22.50
2022-11-12T22:58:12.169Z,21.98
2022-11-12T23:03:36.264Z,22.17
2022-11-12T23:09:00.088Z,19.65
2022-11-12T23:14:22.088Z,18.95
2022-11-12T23:19:45.566Z,18.48
2022-11-12T23:25:08.651Z,18.10
2022-11-12T23:30:30.688Z,18.80
2022-11-12T23:35:53.926Z,17.48
2022-11-12T23:41:18.618Z,18.50
2022-11-12T23:46:40.224Z,19.85
2022-11-12T23:52:03.370Z,18.50
2022-11-12T23:57:25.189Z,19.45
